This is the latest recevied weather packets stored in our database for station/object VA3BOO. If no packets are shown the sender has not sent any weather packets the latest 10 day(s).
| Time | Temp. | Humidity | Pressure | Rain* | Wind** | Luminosity | Snow |
|---|---|---|---|---|---|---|---|
| 1777901403 | 11.11° C | 71% | 1005.7 hPa | 0 mm | - | 388 W/m² | - |
| 1777901104 | 11.11° C | 72% | 1005.7 hPa | 0 mm | - | 344 W/m² | - |
| 1777900803 | 10.56° C | 75% | 1005.9 hPa | 0 mm | - | 322 W/m² | - |
| 1777900504 | 10° C | 76% | 1005.6 hPa | 0 mm | - | 154 W/m² | - |
| 1777900203 | 10° C | 76% | 1005.9 hPa | 0 mm | - | 144 W/m² | - |
| 1777899904 | 10° C | 75% | 1005.9 hPa | 0 mm | - | 162 W/m² | - |
| 1777899604 | 10° C | 77% | 1005.8 hPa | 0 mm | - | 136 W/m² | - |
| 1777899303 | 10° C | 75% | 1006 hPa | 0 mm | - | 135 W/m² | - |
| 1777899003 | 10° C | 76% | 1006 hPa | 0 mm | - | 214 W/m² | - |
| 1777898704 | 10° C | 77% | 1005.9 hPa | 0.25 mm | - | 171 W/m² | - |
| 1777898403 | 10° C | 77% | 1005.9 hPa | 0.76 mm | - | 140 W/m² | - |
| 1777898103 | 10° C | 78% | 1005.9 hPa | 0.76 mm | - | 123 W/m² | - |
| 1777897803 | 9.44° C | 80% | 1006 hPa | 0.76 mm | - | 101 W/m² | - |
| 1777897504 | 8.89° C | 82% | 1005.8 hPa | 0.76 mm | - | 177 W/m² | - |
| 1777897203 | 8.89° C | 81% | 1005.9 hPa | 0.76 mm | - | 163 W/m² | - |
| 1777896903 | 8.33° C | 83% | 1005.9 hPa | 0.76 mm | - | 106 W/m² | - |
| 1777896603 | 8.33° C | 83% | 1006 hPa | 0.76 mm | - | 94 W/m² | - |
| 1777896303 | 8.33° C | 86% | 1005.8 hPa | 0.76 mm | - | 90 W/m² | - |
| 1777896003 | 7.78° C | 87% | 1005.9 hPa | 0.76 mm | - | 98 W/m² | - |
| 1777895703 | 7.78° C | 86% | 1005.9 hPa | 0.76 mm | - | 108 W/m² | - |
| 1777895403 | 7.78° C | 85% | 1005.8 hPa | 0.76 mm | - | 63 W/m² | - |
| 1777895103 | 8.33° C | 82% | 1006 hPa | 0.51 mm | - | 27 W/m² | - |
| 1777894803 | 8.33° C | 80% | 1005.8 hPa | 0 mm | - | 12 W/m² | - |
| 1777894503 | 8.89° C | 78% | 1005.7 hPa | 0 mm | - | 20 W/m² | - |
| 1777894203 | 8.89° C | 77% | 1005.7 hPa | 0 mm | - | 27 W/m² | - |
* Rain latest hour (hover to see other rain measurements)
** Current wind speed in m/s (hover to see current wind gust speed)